createdAt,value
2022-10-28T00:01:27.116Z,101616.77
2022-10-28T00:03:57.862Z,101616.96
2022-10-28T00:06:32.626Z,101617.17
2022-10-28T00:09:01.228Z,101615.62
2022-10-28T00:11:34.813Z,101615.16
2022-10-28T00:14:05.218Z,101614.90
2022-10-28T00:16:35.570Z,101613.04
2022-10-28T00:19:05.389Z,101609.61
2022-10-28T00:21:36.635Z,101609.67
2022-10-28T00:24:06.535Z,101609.36
2022-10-28T00:26:37.178Z,101605.39
2022-10-28T00:29:19.635Z,101602.08
2022-10-28T00:31:47.918Z,101602.76
2022-10-28T00:34:18.658Z,101598.91
2022-10-28T00:36:48.280Z,101600.33
2022-10-28T00:39:24.380Z,101600.59
2022-10-28T00:41:58.354Z,101598.70
2022-10-28T00:44:48.644Z,101602.90
2022-10-28T00:47:34.817Z,101602.70
2022-10-28T00:50:11.925Z,101601.77
2022-10-28T00:52:41.948Z,101600.72
2022-10-28T00:55:10.029Z,101595.05
2022-10-28T00:57:39.694Z,101596.39
2022-10-28T01:00:08.637Z,101591.59
2022-10-28T01:02:45.863Z,101593.20
2022-10-28T01:05:16.736Z,101594.44
2022-10-28T01:07:45.323Z,101594.61
2022-10-28T01:10:15.146Z,101595.64
2022-10-28T01:13:15.479Z,101596.64
2022-10-28T01:15:49.570Z,101593.62
2022-10-28T01:18:29.327Z,101589.41
2022-10-28T01:21:00.504Z,101588.87
2022-10-28T01:23:39.711Z,101588.00
2022-10-28T01:26:26.299Z,101585.52
2022-10-28T01:29:17.468Z,101586.69
2022-10-28T01:32:01.271Z,101590.02
2022-10-28T01:34:59.721Z,101587.98
2022-10-28T01:37:47.993Z,101583.70
2022-10-28T01:40:22.904Z,101583.20
2022-10-28T01:43:05.862Z,101582.84
2022-10-28T01:45:55.592Z,101585.98
2022-10-28T01:48:33.890Z,101592.62
2022-10-28T01:51:21.439Z,101592.79
2022-10-28T01:53:54.001Z,101589.98
2022-10-28T01:56:26.404Z,101588.65
2022-10-28T01:58:59.503Z,101587.61
2022-10-28T02:01:30.286Z,101587.09
2022-10-28T02:03:59.009Z,101584.64
2022-10-28T02:06:30.296Z,101590.21
2022-10-28T02:09:01.466Z,101583.77
2022-10-28T02:12:07.239Z,101576.62
2022-10-28T02:15:04.432Z,101577.19
2022-10-28T02:17:51.001Z,101580.13
2022-10-28T02:20:37.475Z,101582.47
2022-10-28T02:23:16.946Z,101585.28
2022-10-28T02:25:55.433Z,101584.95
2022-10-28T02:28:55.061Z,101581.86
2022-10-28T02:31:25.818Z,101578.38
2022-10-28T02:33:59.878Z,101581.73
2022-10-28T02:36:30.165Z,101581.21
2022-10-28T02:39:00.315Z,101579.67
2022-10-28T02:41:40.121Z,101580.39
2022-10-28T02:44:12.402Z,101581.67
2022-10-28T02:46:45.288Z,101581.12
2022-10-28T02:49:14.725Z,101578.59
2022-10-28T02:52:03.703Z,101577.42
2022-10-28T02:54:39.822Z,101578.79
2022-10-28T02:57:15.760Z,101579.45
2022-10-28T02:59:44.127Z,101578.73
2022-10-28T03:02:12.049Z,101577.88
2022-10-28T03:04:40.306Z,101577.52
2022-10-28T03:07:08.083Z,101576.98
2022-10-28T03:09:36.541Z,101575.75
2022-10-28T03:12:05.158Z,101576.98
2022-10-28T03:14:33.041Z,101580.11
2022-10-28T03:17:01.317Z,101580.11
2022-10-28T03:19:29.730Z,101581.85
2022-10-28T03:21:57.569Z,101585.52
2022-10-28T03:24:25.593Z,101586.76
2022-10-28T03:26:53.829Z,101586.06
2022-10-28T03:29:21.636Z,101588.19
2022-10-28T03:31:49.746Z,101589.61
2022-10-28T03:34:17.558Z,101589.95
2022-10-28T03:36:45.356Z,101591.02
2022-10-28T03:39:15.996Z,101592.98
2022-10-28T03:41:44.120Z,101590.36
2022-10-28T03:44:12.054Z,101588.46
2022-10-28T03:46:39.980Z,101590.63
2022-10-28T03:49:08.239Z,101590.71
2022-10-28T03:51:36.048Z,101592.30
2022-10-28T03:54:03.923Z,101593.60
2022-10-28T03:56:31.787Z,101597.69
2022-10-28T03:59:00.019Z,101599.55
2022-10-28T04:01:27.999Z,101601.88
2022-10-28T04:03:56.202Z,101601.44
2022-10-28T04:06:24.474Z,101605.86
2022-10-28T04:08:52.688Z,101608.86
2022-10-28T04:11:20.897Z,101609.41
2022-10-28T04:13:48.740Z,101603.88
2022-10-28T04:16:16.888Z,101605.66
2022-10-28T04:18:45.214Z,101606.90
2022-10-28T04:21:13.750Z,101606.91
2022-10-28T04:23:41.863Z,101606.92
2022-10-28T04:26:10.034Z,101609.92
2022-10-28T04:28:37.857Z,101609.94
2022-10-28T04:31:05.818Z,101606.29
2022-10-28T04:33:33.754Z,101601.94
2022-10-28T04:36:01.629Z,101599.66
2022-10-28T04:38:29.464Z,101601.23
2022-10-28T04:40:57.711Z,101599.17
2022-10-28T04:43:25.634Z,101594.98
2022-10-28T04:45:53.433Z,101594.64
2022-10-28T04:48:21.980Z,101593.41
2022-10-28T04:50:51.310Z,101592.37
2022-10-28T04:53:19.468Z,101597.20
2022-10-28T04:55:47.612Z,101602.39
2022-10-28T04:58:15.547Z,101600.61
2022-10-28T05:00:43.771Z,101599.02
2022-10-28T05:03:11.618Z,101597.30
2022-10-28T05:05:40.834Z,101597.64
2022-10-28T05:08:09.076Z,101599.37
2022-10-28T05:10:37.301Z,101605.80
2022-10-28T05:13:05.222Z,101612.21
2022-10-28T05:15:33.557Z,101616.68
2022-10-28T05:18:01.394Z,101614.20
2022-10-28T05:20:29.515Z,101620.09
2022-10-28T05:22:58.308Z,101623.05
2022-10-28T05:25:26.463Z,101622.98
2022-10-28T05:27:58.604Z,101622.45
2022-10-28T05:30:27.409Z,101627.85
2022-10-28T05:33:02.911Z,101627.55
2022-10-28T05:35:31.452Z,101629.52
2022-10-28T05:37:59.639Z,101632.80
2022-10-28T05:40:27.459Z,101631.38
2022-10-28T05:42:55.696Z,101634.95
2022-10-28T05:45:24.561Z,101633.77
2022-10-28T05:47:52.769Z,101637.46
2022-10-28T05:50:21.767Z,101638.83
2022-10-28T05:52:54.548Z,101645.79
2022-10-28T05:55:25.508Z,101645.08
2022-10-28T05:57:53.714Z,101646.13
2022-10-28T06:00:26.680Z,101648.90
2022-10-28T06:03:09.546Z,101654.15
2022-10-28T06:05:39.440Z,101657.45
2022-10-28T06:08:07.624Z,101657.88
2022-10-28T06:10:35.456Z,101653.00
2022-10-28T06:13:02.143Z,101648.81
2022-10-28T06:15:30.191Z,101646.69
2022-10-28T06:17:58.119Z,101646.31
2022-10-28T06:20:25.955Z,101646.08
2022-10-28T06:22:55.869Z,101644.77
2022-10-28T06:25:25.629Z,101647.86
2022-10-28T06:27:55.847Z,101647.05
2022-10-28T06:30:26.048Z,101642.59
2022-10-28T06:32:57.625Z,101642.98
2022-10-28T06:35:25.771Z,101641.30
2022-10-28T06:37:55.659Z,101639.07
2022-10-28T06:40:24.569Z,101639.26
2022-10-28T06:42:57.021Z,101641.02
2022-10-28T06:45:26.651Z,101641.02
2022-10-28T06:48:04.722Z,101642.41
2022-10-28T06:50:34.556Z,101643.08
2022-10-28T06:53:03.600Z,101645.55
2022-10-28T06:55:31.632Z,101643.65
2022-10-28T06:58:01.329Z,101646.09
2022-10-28T07:00:33.766Z,101643.79
2022-10-28T07:03:03.334Z,101643.40
2022-10-28T07:05:31.630Z,101644.45
2022-10-28T07:07:59.617Z,101646.73
2022-10-28T07:10:27.532Z,101649.07
2022-10-28T07:12:55.941Z,101644.23
2022-10-28T07:15:24.393Z,101641.41
2022-10-28T07:17:57.192Z,101643.52
2022-10-28T07:20:27.721Z,101639.73
2022-10-28T07:23:00.910Z,101635.10
2022-10-28T07:25:30.793Z,101636.70
2022-10-28T07:27:59.643Z,101632.54
2022-10-28T07:30:29.146Z,101634.60
2022-10-28T07:33:01.048Z,101635.12
2022-10-28T07:35:29.369Z,101644.32
2022-10-28T07:37:58.822Z,101641.23
2022-10-28T07:40:27.808Z,101642.41
2022-10-28T07:42:56.146Z,101644.77
2022-10-28T07:45:24.473Z,101643.46
2022-10-28T07:47:52.689Z,101643.42
2022-10-28T07:50:20.857Z,101641.46
2022-10-28T07:52:49.011Z,101640.05
2022-10-28T07:55:16.974Z,101644.69
2022-10-28T07:57:45.117Z,101644.75
2022-10-28T08:00:13.720Z,101647.48
2022-10-28T08:02:42.751Z,101644.25
2022-10-28T08:05:10.671Z,101643.69
2022-10-28T08:07:39.140Z,101642.80
2022-10-28T08:10:08.064Z,101641.87
2022-10-28T08:12:36.686Z,101642.41
2022-10-28T08:15:05.526Z,101643.64
2022-10-28T08:17:33.306Z,101645.67
2022-10-28T08:20:01.504Z,101649.03
2022-10-28T08:22:29.908Z,101646.58
2022-10-28T08:24:57.804Z,101644.05
2022-10-28T08:27:26.098Z,101642.23
2022-10-28T08:29:54.788Z,101645.48
2022-10-28T08:32:22.761Z,101643.91
2022-10-28T08:34:50.679Z,101647.70
2022-10-28T08:37:18.614Z,101649.77
2022-10-28T08:39:46.495Z,101645.81
2022-10-28T08:42:50.811Z,101645.54
2022-10-28T08:45:30.962Z,101648.06
2022-10-28T08:48:20.716Z,101650.90
2022-10-28T08:50:53.335Z,101648.80
2022-10-28T08:53:26.096Z,101649.59
2022-10-28T08:55:59.482Z,101644.32
2022-10-28T08:58:34.305Z,101644.79
2022-10-28T09:01:05.727Z,101645.80
2022-10-28T09:03:41.571Z,101646.11
2022-10-28T09:06:11.316Z,101645.35
2022-10-28T09:08:48.907Z,101645.34
2022-10-28T09:11:51.242Z,101647.67
2022-10-28T09:14:25.331Z,101642.44
2022-10-28T09:16:59.291Z,101641.76
2022-10-28T09:19:40.472Z,101642.63
2022-10-28T09:22:20.764Z,101642.34
2022-10-28T09:24:53.805Z,101643.02
2022-10-28T09:27:37.874Z,101643.48
2022-10-28T09:30:30.697Z,101643.29
2022-10-28T09:33:37.536Z,101639.16
2022-10-28T09:36:11.661Z,101641.97
2022-10-28T09:38:40.513Z,101646.06
2022-10-28T09:41:20.149Z,101644.50
2022-10-28T09:43:55.576Z,101641.74
2022-10-28T09:46:31.953Z,101641.01
2022-10-28T09:49:06.265Z,101642.39
2022-10-28T09:51:37.851Z,101640.07
2022-10-28T09:54:05.858Z,101640.02
2022-10-28T09:56:33.805Z,101641.30
2022-10-28T09:59:03.425Z,101641.05
2022-10-28T10:01:34.444Z,101639.73
2022-10-28T10:04:03.569Z,101640.95
2022-10-28T10:06:39.642Z,101640.06
2022-10-28T10:09:18.439Z,101637.21
2022-10-28T10:11:49.319Z,101634.63
2022-10-28T10:14:29.884Z,101632.52
2022-10-28T10:17:03.999Z,101633.91
2022-10-28T10:19:57.157Z,101637.98
2022-10-28T10:22:49.016Z,101636.02
2022-10-28T10:25:19.944Z,101635.77
2022-10-28T10:27:55.666Z,101633.38
2022-10-28T10:30:28.887Z,101638.13
2022-10-28T10:32:58.903Z,101632.98
2022-10-28T10:35:30.847Z,101633.18
2022-10-28T10:38:01.449Z,101627.53
2022-10-28T10:40:50.890Z,101622.70
2022-10-28T10:43:18.704Z,101620.40
2022-10-28T10:46:16.698Z,101618.83
2022-10-28T10:48:45.257Z,101619.98
2022-10-28T10:51:23.452Z,101616.55
2022-10-28T10:53:56.127Z,101611.85
2022-10-28T10:56:27.537Z,101611.27
2022-10-28T10:58:59.169Z,101609.91
2022-10-28T11:01:33.405Z,101607.17
2022-10-28T11:04:04.506Z,101605.70
2022-10-28T11:06:37.317Z,101608.11
2022-10-28T11:09:08.560Z,101605.52
2022-10-28T11:11:38.548Z,101601.41
2022-10-28T11:14:09.569Z,101597.92
2022-10-28T11:16:52.057Z,101595.30
2022-10-28T11:19:22.360Z,101591.60
2022-10-28T11:22:14.848Z,101589.84
2022-10-28T11:25:24.317Z,101590.72
2022-10-28T11:28:20.364Z,101586.91
2022-10-28T11:31:03.971Z,101587.80
2022-10-28T11:34:02.042Z,101585.98
2022-10-28T11:36:38.521Z,101586.48
2022-10-28T11:39:16.190Z,101588.13
2022-10-28T11:42:08.693Z,101590.88
2022-10-28T11:45:01.506Z,101590.41
2022-10-28T11:47:48.491Z,101586.21
2022-10-28T11:50:28.558Z,101581.46
2022-10-28T11:53:11.711Z,101579.15
2022-10-28T11:55:47.775Z,101576.27
2022-10-28T11:58:31.691Z,101570.20
2022-10-28T12:01:02.678Z,101566.83
2022-10-28T12:03:42.692Z,101560.92
2022-10-28T12:06:36.566Z,101562.39
2022-10-28T12:09:25.821Z,101558.62
2022-10-28T12:12:03.983Z,101555.77
2022-10-28T12:14:57.541Z,101557.33
2022-10-28T12:17:44.125Z,101554.94
2022-10-28T12:20:23.531Z,101556.61
2022-10-28T12:22:53.287Z,101553.09
2022-10-28T12:25:27.120Z,101552.10
2022-10-28T12:28:02.655Z,101552.52
2022-10-28T12:30:34.783Z,101553.94
2022-10-28T12:33:20.940Z,101555.59
2022-10-28T12:36:13.017Z,101553.96
2022-10-28T12:38:48.820Z,101551.49
2022-10-28T12:41:46.632Z,101558.29
2022-10-28T12:44:20.433Z,101556.98
2022-10-28T12:46:52.922Z,101554.21
2022-10-28T12:50:02.808Z,101555.85
2022-10-28T12:52:54.438Z,101556.80
2022-10-28T12:55:40.355Z,101552.64
2022-10-28T12:58:38.708Z,101552.33
2022-10-28T13:01:15.441Z,101553.94
2022-10-28T13:03:43.481Z,101552.77
2022-10-28T13:06:25.584Z,101548.53
2022-10-28T13:09:12.003Z,101547.73
2022-10-28T13:11:58.914Z,101551.98
2022-10-28T13:15:13.945Z,101551.93
2022-10-28T13:18:19.821Z,101552.38
2022-10-28T13:21:12.735Z,101552.13
2022-10-28T13:23:48.271Z,101552.52
2022-10-28T13:26:36.045Z,101548.23
2022-10-28T13:29:07.805Z,101550.45
2022-10-28T13:31:46.865Z,101548.62
2022-10-28T13:34:18.197Z,101549.23
2022-10-28T13:36:57.644Z,101542.71
2022-10-28T13:39:47.330Z,101547.86
2022-10-28T13:42:15.588Z,101547.17
2022-10-28T13:44:50.812Z,101545.23
2022-10-28T13:47:35.682Z,101543.00
2022-10-28T13:50:06.851Z,101540.75
2022-10-28T13:52:42.604Z,101541.00
2022-10-28T13:55:42.372Z,101543.17
2022-10-28T13:58:26.021Z,101543.59
2022-10-28T14:00:55.207Z,101544.31
2022-10-28T14:03:26.824Z,101539.47
2022-10-28T14:05:59.678Z,101541.23
2022-10-28T14:08:33.996Z,101542.64
2022-10-28T14:11:13.033Z,101542.58
2022-10-28T14:13:50.025Z,101541.73
2022-10-28T14:16:26.864Z,101545.23
2022-10-28T14:19:06.115Z,101545.61
2022-10-28T14:21:47.947Z,101538.77
2022-10-28T14:24:35.642Z,101533.73
2022-10-28T14:27:10.252Z,101532.20
2022-10-28T14:29:46.564Z,101530.09
2022-10-28T14:32:33.075Z,101535.69
2022-10-28T14:35:14.696Z,101534.51
2022-10-28T14:37:58.245Z,101534.27
2022-10-28T14:40:40.279Z,101536.44
2022-10-28T14:43:25.138Z,101537.76
2022-10-28T14:46:22.801Z,101534.63
2022-10-28T14:48:59.783Z,101528.02
2022-10-28T14:51:37.051Z,101524.85
2022-10-28T14:54:12.613Z,101518.17
2022-10-28T14:56:41.639Z,101517.55
2022-10-28T14:59:30.391Z,101519.16
2022-10-28T15:02:14.362Z,101520.55
2022-10-28T15:04:46.691Z,101517.30
2022-10-28T15:07:17.673Z,101516.60
2022-10-28T15:09:53.890Z,101514.72
2022-10-28T15:12:30.106Z,101514.44
2022-10-28T15:14:58.547Z,101514.73
2022-10-28T15:17:29.451Z,101520.63
2022-10-28T15:20:00.506Z,101527.50
2022-10-28T15:22:32.163Z,101527.90
2022-10-28T15:25:16.178Z,101527.45
2022-10-28T15:27:46.054Z,101527.14
2022-10-28T15:30:32.619Z,101527.84
2022-10-28T15:33:20.762Z,101527.05
2022-10-28T15:35:49.092Z,101527.84
2022-10-28T15:38:38.119Z,101528.96
2022-10-28T15:41:41.760Z,101529.11
2022-10-28T15:44:26.430Z,101532.80
2022-10-28T15:46:55.882Z,101533.21
2022-10-28T15:49:42.256Z,101530.39
2022-10-28T15:52:16.515Z,101527.70
2022-10-28T15:54:55.977Z,101521.52
2022-10-28T15:57:28.207Z,101525.95
2022-10-28T16:00:22.007Z,101525.79
2022-10-28T16:03:05.850Z,101522.02
2022-10-28T16:05:39.625Z,101519.61
2022-10-28T16:08:16.051Z,101517.23
2022-10-28T16:10:47.218Z,101524.02
2022-10-28T16:13:26.253Z,101521.21
2022-10-28T16:16:03.106Z,101515.91
2022-10-28T16:18:35.303Z,101509.34
2022-10-28T16:21:05.069Z,101507.86
2022-10-28T16:23:42.966Z,101509.60
2022-10-28T16:26:12.500Z,101511.06
2022-10-28T16:28:45.008Z,101512.65
2022-10-28T16:31:16.562Z,101507.53
2022-10-28T16:33:45.080Z,101509.85
2022-10-28T16:36:13.615Z,101518.55
2022-10-28T16:38:41.380Z,101530.33
2022-10-28T16:41:19.091Z,101535.10
2022-10-28T16:43:47.105Z,101539.91
2022-10-28T16:46:15.693Z,101538.58
2022-10-28T16:48:43.596Z,101535.08
2022-10-28T16:51:14.975Z,101539.73
2022-10-28T16:53:47.585Z,101536.65
2022-10-28T16:56:16.639Z,101540.56
2022-10-28T16:58:44.640Z,101538.96
2022-10-28T17:01:18.176Z,101540.79
2022-10-28T17:03:46.735Z,101543.23
2022-10-28T17:06:14.577Z,101538.98
2022-10-28T17:09:02.033Z,101537.02
2022-10-28T17:13:59.392Z,101536.58
2022-10-28T17:16:27.641Z,101537.74
2022-10-28T17:18:55.523Z,101541.30
2022-10-28T17:21:24.021Z,101540.98
2022-10-28T17:23:52.299Z,101540.52
2022-10-28T17:26:20.258Z,101540.13
2022-10-28T17:28:52.420Z,101543.63
2022-10-28T17:31:23.987Z,101548.71
2022-10-28T17:33:56.254Z,101546.27
2022-10-28T17:36:24.647Z,101545.20
2022-10-28T17:38:52.552Z,101542.73
2022-10-28T17:41:20.509Z,101545.30
2022-10-28T17:43:48.753Z,101551.98
2022-10-28T17:46:17.025Z,101551.03
2022-10-28T17:48:44.942Z,101550.52
2022-10-28T17:51:13.111Z,101550.87
2022-10-28T17:53:41.005Z,101546.67
2022-10-28T17:56:09.196Z,101549.05
2022-10-28T17:58:37.284Z,101555.30
2022-10-28T18:01:07.501Z,101558.36
2022-10-28T18:03:38.511Z,101558.02
2022-10-28T18:06:10.877Z,101559.95
2022-10-28T18:08:42.822Z,101564.35
2022-10-28T18:11:13.262Z,101561.30
2022-10-28T18:13:42.867Z,101553.64
2022-10-28T18:16:16.630Z,101552.69
2022-10-28T18:18:44.679Z,101546.77
2022-10-28T18:21:13.583Z,101544.70
2022-10-28T18:23:41.889Z,101546.15
2022-10-28T18:26:14.815Z,101545.48
2022-10-28T18:28:44.552Z,101549.92
2022-10-28T18:31:12.431Z,101551.74
2022-10-28T18:33:41.783Z,101550.23
2022-10-28T18:36:21.201Z,101552.14
2022-10-28T18:38:50.212Z,101550.20
2022-10-28T18:41:20.386Z,101548.73
2022-10-28T18:43:48.481Z,101544.08
2022-10-28T18:46:17.361Z,101542.05
2022-10-28T18:48:45.202Z,101538.92
2022-10-28T18:51:13.870Z,101538.95
2022-10-28T18:53:45.093Z,101534.76
2022-10-28T18:56:20.959Z,101532.31
2022-10-28T18:58:51.431Z,101529.85
2022-10-28T19:01:21.366Z,101528.70
2022-10-28T19:03:56.384Z,101532.02
2022-10-28T19:06:26.443Z,101537.46
2022-10-28T19:08:56.495Z,101539.44
2022-10-28T19:11:30.234Z,101542.89
2022-10-28T19:14:05.823Z,101546.61
2022-10-28T19:16:36.518Z,101550.63
2022-10-28T19:19:05.762Z,101555.09
2022-10-28T19:21:34.182Z,101557.87
2022-10-28T19:24:02.893Z,101558.08
2022-10-28T19:26:32.043Z,101558.31
2022-10-28T19:29:00.151Z,101560.06
2022-10-28T19:31:28.637Z,101561.34
2022-10-28T19:33:56.687Z,101559.45
2022-10-28T19:36:27.618Z,101559.67
2022-10-28T19:38:57.890Z,101561.01
2022-10-28T19:41:28.259Z,101566.65
2022-10-28T19:44:01.649Z,101569.27
2022-10-28T19:46:34.017Z,101567.90
2022-10-28T19:49:05.263Z,101571.91
2022-10-28T19:51:36.218Z,101572.25
2022-10-28T19:54:07.579Z,101573.21
2022-10-28T19:56:36.147Z,101566.23
2022-10-28T19:59:06.055Z,101566.24
2022-10-28T20:01:39.336Z,101564.86
2022-10-28T20:04:10.416Z,101567.13
2022-10-28T20:06:41.004Z,101572.39
2022-10-28T20:09:09.480Z,101573.60
2022-10-28T20:11:39.472Z,101581.40
2022-10-28T20:14:11.810Z,101582.06
2022-10-28T20:16:43.252Z,101580.05
2022-10-28T20:19:11.782Z,101580.02
2022-10-28T20:21:39.946Z,101582.38
2022-10-28T20:24:08.492Z,101582.60
2022-10-28T20:26:38.905Z,101582.63
2022-10-28T20:29:08.985Z,101579.67
2022-10-28T20:31:39.207Z,101579.14
2022-10-28T20:34:08.593Z,101574.06
2022-10-28T20:36:38.266Z,101570.84
2022-10-28T20:39:08.957Z,101575.13
2022-10-28T20:41:38.704Z,101572.59
2022-10-28T20:44:07.240Z,101568.87
2022-10-28T20:46:36.292Z,101564.63
2022-10-28T20:49:05.828Z,101564.18
2022-10-28T20:51:34.046Z,101566.98
2022-10-28T20:54:02.539Z,101567.79
2022-10-28T20:56:35.531Z,101568.20
2022-10-28T20:59:04.616Z,101570.54
2022-10-28T21:01:39.136Z,101573.64
2022-10-28T21:04:09.750Z,101575.00
2022-10-28T21:06:39.162Z,101575.00
2022-10-28T21:09:08.123Z,101578.72
2022-10-28T21:11:35.934Z,101582.02
2022-10-28T21:14:03.920Z,101586.16
2022-10-28T21:16:32.319Z,101584.02
2022-10-28T21:19:00.492Z,101585.05
2022-10-28T21:21:29.761Z,101582.59
2022-10-28T21:24:00.226Z,101582.67
2022-10-28T21:26:28.094Z,101584.38
2022-10-28T21:28:56.735Z,101578.48
2022-10-28T21:31:25.652Z,101573.25
2022-10-28T21:33:53.893Z,101570.31
2022-10-28T21:36:22.420Z,101570.48
2022-10-28T21:38:55.390Z,101564.37
2022-10-28T21:41:25.115Z,101561.27
2022-10-28T21:43:54.477Z,101556.92
2022-10-28T21:46:24.533Z,101556.45
2022-10-28T21:48:53.883Z,101558.79
2022-10-28T21:51:21.778Z,101563.05
2022-10-28T21:53:49.929Z,101565.77
2022-10-28T21:56:20.359Z,101563.41
2022-10-28T21:58:49.319Z,101562.61
2022-10-28T22:01:23.877Z,101559.80
2022-10-28T22:03:55.518Z,101555.22
2022-10-28T22:06:24.123Z,101557.31
2022-10-28T22:08:55.916Z,101552.11
2022-10-28T22:11:24.590Z,101548.08
2022-10-28T22:14:04.161Z,101544.94
2022-10-28T22:16:34.735Z,101544.79
2022-10-28T22:19:04.217Z,101545.45
2022-10-28T22:21:35.305Z,101545.58
2022-10-28T22:24:03.153Z,101540.84
2022-10-28T22:26:32.970Z,101539.05
2022-10-28T22:29:00.767Z,101537.04
2022-10-28T22:31:31.814Z,101536.63
2022-10-28T22:34:00.736Z,101538.01
2022-10-28T22:36:30.212Z,101539.17
2022-10-28T22:38:58.594Z,101537.09
2022-10-28T22:41:29.026Z,101531.66
2022-10-28T22:43:59.712Z,101532.98
2022-10-28T22:46:32.273Z,101534.34
2022-10-28T22:49:00.584Z,101539.73
2022-10-28T22:51:28.664Z,101546.21
2022-10-28T22:53:57.143Z,101540.34
2022-10-28T22:56:26.490Z,101537.40
2022-10-28T22:58:56.368Z,101538.69
2022-10-28T23:01:26.160Z,101540.88
2022-10-28T23:03:55.659Z,101538.04
2022-10-28T23:06:26.085Z,101537.40
2022-10-28T23:08:54.570Z,101540.76
2022-10-28T23:11:23.397Z,101539.52
2022-10-28T23:13:53.454Z,101539.07
2022-10-28T23:16:22.980Z,101538.86
2022-10-28T23:18:53.209Z,101535.59
2022-10-28T23:21:25.904Z,101529.33
2022-10-28T23:23:59.144Z,101526.58
2022-10-28T23:26:29.237Z,101529.02
2022-10-28T23:28:59.508Z,101527.69
2022-10-28T23:31:28.353Z,101525.88
2022-10-28T23:33:58.202Z,101522.86
2022-10-28T23:36:26.577Z,101518.86
2022-10-28T23:38:56.606Z,101517.02
2022-10-28T23:41:24.473Z,101515.61
2022-10-28T23:43:52.550Z,101514.60
2022-10-28T23:46:21.588Z,101515.90
2022-10-28T23:48:49.575Z,101516.59
2022-10-28T23:51:19.339Z,101515.59
2022-10-28T23:53:47.610Z,101516.02
2022-10-28T23:56:15.367Z,101515.57
2022-10-28T23:58:43.523Z,101516.72
